Strona główna
METAR-TAF:

METAR-TAF

Lotnisko :

Port lotniczy Humberside

Humberside, Anglia

Szerokość geograficzna: 53-35N, Długość geograficzna: 000-21W, wysokość: 31 m

Aktualna obserwacja pogody

Raport powstał 24 minut temu, godzina 16:20 UTC
Wiatr 3 kt od zachód
Temperatura 8°C
Wilgotność 93%
Ciśnienie 1014 hPa
Widzialność 10 km lub więcej
Mało chmury na wysokości 1500 ft

METAR: EGNJ 251620Z 26003KT 9999 FEW015 08/07 Q1014

czas: 16:44 (16:44 UTC)

Prognoza

Raport powstał 2 godziny i 50 minut temu, godzina 13:54 UTC
Prognoza ważna od 25 godzina 15 UTC do 25 godzina 24 UTC
Wiatr 10 kt od zachód
Widzialność 10 km lub więcej
Rozproszone chmury na wysokości 2000 ft
Prawdopodobieństwo 30% :
Przejściowo
od 25 godzina 15 UTC do 25 godzina 16 UTC
Przerywane chmury na wysokości 800 ft
Przejściowo
od 25 godzina 20 UTC do 25 godzina 21 UTC
Widzialność: 7000 m

TAF: EGNJ 251354Z 2515/2524 27010KT 9999 SCT020 PROB30 TEMPO 2515/2516 BKN008 TEMPO 2520/2521 7000

Obserwacja i prognoza pogody dla ponad 4000 lotnisk (raport METAR i TAF).

Dostępne stacje oznaczono żółtymi i czerwonymi punktami na mapie.

Najedź kursorem aby zobaczyć nazwę stacji.

Kliknij aby zobaczyć obserwacje i prognozy pogody.

Aby zmienić mapę: kliknij na zielony przycisk z czarnym krzyżykiem, aby powiększyć; na zielony przycisk z myślnikiem, aby pomniejszyć; na zielone strzałki, aby przejść do map sąsiednich.


METAR-TAF: